sensor_id;sensor_type;location;lat;lon;timestamp;temperature;humidity
15765;DHT22;7983;50.744;7.086;2022-09-03T00:00:09;19.70;52.30
15765;DHT22;7983;50.744;7.086;2022-09-03T00:02:43;19.70;52.90
15765;DHT22;7983;50.744;7.086;2022-09-03T00:10:45;19.50;53.20
15765;DHT22;7983;50.744;7.086;2022-09-03T00:13:26;19.40;52.80
15765;DHT22;7983;50.744;7.086;2022-09-03T00:15:54;19.30;53.20
15765;DHT22;7983;50.744;7.086;2022-09-03T00:18:26;19.20;52.90
15765;DHT22;7983;50.744;7.086;2022-09-03T00:21:01;19.20;53.20
15765;DHT22;7983;50.744;7.086;2022-09-03T00:23:38;19.20;53.70
15765;DHT22;7983;50.744;7.086;2022-09-03T00:31:57;19.10;53.80
15765;DHT22;7983;50.744;7.086;2022-09-03T00:36:46;19.00;54.40
15765;DHT22;7983;50.744;7.086;2022-09-03T00:39:24;19.10;53.80
15765;DHT22;7983;50.744;7.086;2022-09-03T00:49:56;18.90;53.90
15765;DHT22;7983;50.744;7.086;2022-09-03T00:52:44;18.90;54.50
15765;DHT22;7983;50.744;7.086;2022-09-03T00:55:33;18.90;54.80
15765;DHT22;7983;50.744;7.086;2022-09-03T01:00:46;18.80;54.10
15765;DHT22;7983;50.744;7.086;2022-09-03T01:06:12;18.80;55.00
15765;DHT22;7983;50.744;7.086;2022-09-03T01:30:19;18.50;55.70
15765;DHT22;7983;50.744;7.086;2022-09-03T01:35:33;18.40;55.50
15765;DHT22;7983;50.744;7.086;2022-09-03T01:38:19;18.40;56.00
15765;DHT22;7983;50.744;7.086;2022-09-03T01:46:16;18.20;56.50
15765;DHT22;7983;50.744;7.086;2022-09-03T01:49:54;18.20;57.00
15765;DHT22;7983;50.744;7.086;2022-09-03T01:52:17;18.20;56.50
15765;DHT22;7983;50.744;7.086;2022-09-03T01:54:47;18.10;56.90
15765;DHT22;7983;50.744;7.086;2022-09-03T02:00:13;18.10;57.40
15765;DHT22;7983;50.744;7.086;2022-09-03T02:02:42;18.10;57.50
15765;DHT22;7983;50.744;7.086;2022-09-03T02:05:17;18.00;56.70
15765;DHT22;7983;50.744;7.086;2022-09-03T02:10:14;18.00;57.00
15765;DHT22;7983;50.744;7.086;2022-09-03T02:12:45;18.00;57.20
15765;DHT22;7983;50.744;7.086;2022-09-03T02:15:16;18.00;57.30
15765;DHT22;7983;50.744;7.086;2022-09-03T02:17:46;18.00;57.20
15765;DHT22;7983;50.744;7.086;2022-09-03T02:20:25;18.00;57.40
15765;DHT22;7983;50.744;7.086;2022-09-03T02:22:52;18.00;58.00
15765;DHT22;7983;50.744;7.086;2022-09-03T02:25:20;18.00;57.30
15765;DHT22;7983;50.744;7.086;2022-09-03T02:27:49;17.90;57.40
15765;DHT22;7983;50.744;7.086;2022-09-03T02:30:15;17.90;57.70
15765;DHT22;7983;50.744;7.086;2022-09-03T02:32:43;17.90;57.70
15765;DHT22;7983;50.744;7.086;2022-09-03T02:35:09;17.90;57.70
15765;DHT22;7983;50.744;7.086;2022-09-03T02:37:39;17.90;58.00
15765;DHT22;7983;50.744;7.086;2022-09-03T02:40:07;17.90;58.00
15765;DHT22;7983;50.744;7.086;2022-09-03T02:42:34;17.80;58.10
15765;DHT22;7983;50.744;7.086;2022-09-03T02:45:16;17.80;58.20
15765;DHT22;7983;50.744;7.086;2022-09-03T02:47:50;17.80;58.40
15765;DHT22;7983;50.744;7.086;2022-09-03T02:50:16;17.80;58.20
15765;DHT22;7983;50.744;7.086;2022-09-03T02:52:42;17.80;58.10
15765;DHT22;7983;50.744;7.086;2022-09-03T02:55:08;17.80;58.20
15765;DHT22;7983;50.744;7.086;2022-09-03T02:57:33;17.80;58.30
15765;DHT22;7983;50.744;7.086;2022-09-03T03:00:01;17.70;58.20
15765;DHT22;7983;50.744;7.086;2022-09-03T03:02:27;17.70;58.30
15765;DHT22;7983;50.744;7.086;2022-09-03T03:04:55;17.80;58.50
15765;DHT22;7983;50.744;7.086;2022-09-03T03:07:21;17.80;58.40
15765;DHT22;7983;50.744;7.086;2022-09-03T03:09:55;17.80;58.40
15765;DHT22;7983;50.744;7.086;2022-09-03T03:12:25;17.80;58.70
15765;DHT22;7983;50.744;7.086;2022-09-03T03:14:51;17.80;58.50
15765;DHT22;7983;50.744;7.086;2022-09-03T03:17:16;17.80;58.60
15765;DHT22;7983;50.744;7.086;2022-09-03T03:19:42;17.80;58.70
15765;DHT22;7983;50.744;7.086;2022-09-03T03:22:12;17.80;58.80
15765;DHT22;7983;50.744;7.086;2022-09-03T03:24:38;17.80;59.00
15765;DHT22;7983;50.744;7.086;2022-09-03T03:27:08;17.80;58.90
15765;DHT22;7983;50.744;7.086;2022-09-03T03:29:35;17.90;59.10
15765;DHT22;7983;50.744;7.086;2022-09-03T03:32:03;17.90;59.00
15765;DHT22;7983;50.744;7.086;2022-09-03T03:34:29;17.90;59.10
15765;DHT22;7983;50.744;7.086;2022-09-03T03:36:55;17.90;59.10
15765;DHT22;7983;50.744;7.086;2022-09-03T03:39:24;17.90;59.10
15765;DHT22;7983;50.744;7.086;2022-09-03T03:41:52;18.00;59.10
15765;DHT22;7983;50.744;7.086;2022-09-03T03:44:17;18.00;59.20
15765;DHT22;7983;50.744;7.086;2022-09-03T03:46:44;18.00;59.30
15765;DHT22;7983;50.744;7.086;2022-09-03T03:49:11;18.10;59.30
15765;DHT22;7983;50.744;7.086;2022-09-03T03:51:37;18.10;59.20
15765;DHT22;7983;50.744;7.086;2022-09-03T03:54:03;18.20;59.40
15765;DHT22;7983;50.744;7.086;2022-09-03T03:56:29;18.20;59.40
15765;DHT22;7983;50.744;7.086;2022-09-03T03:58:55;18.20;59.50
15765;DHT22;7983;50.744;7.086;2022-09-03T04:01:27;18.20;59.50
15765;DHT22;7983;50.744;7.086;2022-09-03T04:03:57;18.30;59.60
15765;DHT22;7983;50.744;7.086;2022-09-03T04:06:27;18.30;59.70
15765;DHT22;7983;50.744;7.086;2022-09-03T04:08:55;18.30;59.70
15765;DHT22;7983;50.744;7.086;2022-09-03T04:11:24;18.30;59.70
15765;DHT22;7983;50.744;7.086;2022-09-03T04:13:50;18.30;59.60
15765;DHT22;7983;50.744;7.086;2022-09-03T04:16:25;18.30;59.60
15765;DHT22;7983;50.744;7.086;2022-09-03T04:18:52;18.40;60.00
15765;DHT22;7983;50.744;7.086;2022-09-03T04:21:24;18.40;59.70
15765;DHT22;7983;50.744;7.086;2022-09-03T04:23:50;18.40;60.00
15765;DHT22;7983;50.744;7.086;2022-09-03T04:26:20;18.40;59.90
15765;DHT22;7983;50.744;7.086;2022-09-03T04:28:46;18.40;60.00
15765;DHT22;7983;50.744;7.086;2022-09-03T04:31:13;18.40;60.00
15765;DHT22;7983;50.744;7.086;2022-09-03T04:33:40;18.40;60.10
15765;DHT22;7983;50.744;7.086;2022-09-03T04:38:36;18.40;60.10
15765;DHT22;7983;50.744;7.086;2022-09-03T04:41:05;18.40;60.10
15765;DHT22;7983;50.744;7.086;2022-09-03T04:43:32;18.40;60.10
15765;DHT22;7983;50.744;7.086;2022-09-03T04:45:59;18.40;60.20
15765;DHT22;7983;50.744;7.086;2022-09-03T04:48:27;18.40;60.20
15765;DHT22;7983;50.744;7.086;2022-09-03T04:51:01;18.40;60.40
15765;DHT22;7983;50.744;7.086;2022-09-03T04:53:30;18.40;60.70
15765;DHT22;7983;50.744;7.086;2022-09-03T04:55:55;18.50;60.50
15765;DHT22;7983;50.744;7.086;2022-09-03T04:58:23;18.50;60.70
15765;DHT22;7983;50.744;7.086;2022-09-03T05:00:49;18.50;61.40
15765;DHT22;7983;50.744;7.086;2022-09-03T05:03:14;18.40;60.70
15765;DHT22;7983;50.744;7.086;2022-09-03T05:05:40;18.50;60.80
15765;DHT22;7983;50.744;7.086;2022-09-03T05:08:06;18.50;60.90
15765;DHT22;7983;50.744;7.086;2022-09-03T05:10:32;18.50;61.00
15765;DHT22;7983;50.744;7.086;2022-09-03T05:13:02;18.50;61.10
15765;DHT22;7983;50.744;7.086;2022-09-03T05:15:29;18.50;61.40
15765;DHT22;7983;50.744;7.086;2022-09-03T05:18:01;18.60;61.40
15765;DHT22;7983;50.744;7.086;2022-09-03T05:20:28;18.60;61.60
15765;DHT22;7983;50.744;7.086;2022-09-03T05:23:01;18.60;61.60
15765;DHT22;7983;50.744;7.086;2022-09-03T05:25:30;18.60;61.60
15765;DHT22;7983;50.744;7.086;2022-09-03T05:27:59;18.60;61.60
15765;DHT22;7983;50.744;7.086;2022-09-03T05:30:27;18.70;61.80
15765;DHT22;7983;50.744;7.086;2022-09-03T05:32:53;18.70;61.80
15765;DHT22;7983;50.744;7.086;2022-09-03T05:35:18;18.70;61.80
15765;DHT22;7983;50.744;7.086;2022-09-03T05:37:46;18.80;61.90
15765;DHT22;7983;50.744;7.086;2022-09-03T05:40:13;18.80;62.10
15765;DHT22;7983;50.744;7.086;2022-09-03T05:42:43;18.80;62.00
15765;DHT22;7983;50.744;7.086;2022-09-03T05:45:09;18.90;62.10
15765;DHT22;7983;50.744;7.086;2022-09-03T05:47:36;18.90;62.10
15765;DHT22;7983;50.744;7.086;2022-09-03T05:50:07;19.00;62.20
15765;DHT22;7983;50.744;7.086;2022-09-03T05:52:37;19.00;62.30
15765;DHT22;7983;50.744;7.086;2022-09-03T05:55:03;19.00;62.50
15765;DHT22;7983;50.744;7.086;2022-09-03T05:57:29;19.10;62.40
15765;DHT22;7983;50.744;7.086;2022-09-03T05:59:59;19.10;62.40
15765;DHT22;7983;50.744;7.086;2022-09-03T06:02:24;19.20;62.70
15765;DHT22;7983;50.744;7.086;2022-09-03T06:04:50;19.20;62.50
15765;DHT22;7983;50.744;7.086;2022-09-03T06:07:16;19.20;62.50
15765;DHT22;7983;50.744;7.086;2022-09-03T06:09:45;19.20;62.60
15765;DHT22;7983;50.744;7.086;2022-09-03T06:12:12;19.30;62.70
15765;DHT22;7983;50.744;7.086;2022-09-03T06:14:38;19.30;62.80
15765;DHT22;7983;50.744;7.086;2022-09-03T06:17:04;19.40;63.00
15765;DHT22;7983;50.744;7.086;2022-09-03T06:19:35;19.40;63.00
15765;DHT22;7983;50.744;7.086;2022-09-03T06:22:01;19.50;63.10
15765;DHT22;7983;50.744;7.086;2022-09-03T06:24:26;19.60;63.30
15765;DHT22;7983;50.744;7.086;2022-09-03T06:26:59;19.60;63.30
15765;DHT22;7983;50.744;7.086;2022-09-03T06:29:25;19.70;63.50
15765;DHT22;7983;50.744;7.086;2022-09-03T06:31:51;19.80;63.60
15765;DHT22;7983;50.744;7.086;2022-09-03T06:34:17;19.90;63.80
15765;DHT22;7983;50.744;7.086;2022-09-03T06:36:46;20.00;64.10
15765;DHT22;7983;50.744;7.086;2022-09-03T06:39:12;20.10;64.50
15765;DHT22;7983;50.744;7.086;2022-09-03T06:41:42;20.20;64.50
15765;DHT22;7983;50.744;7.086;2022-09-03T06:44:08;20.30;64.40
15765;DHT22;7983;50.744;7.086;2022-09-03T06:46:38;20.30;64.20
15765;DHT22;7983;50.744;7.086;2022-09-03T06:49:04;20.40;63.90
15765;DHT22;7983;50.744;7.086;2022-09-03T06:51:31;20.50;63.80
15765;DHT22;7983;50.744;7.086;2022-09-03T06:54:15;20.60;63.70
15765;DHT22;7983;50.744;7.086;2022-09-03T06:56:41;20.70;63.80
15765;DHT22;7983;50.744;7.086;2022-09-03T06:59:11;20.70;63.50
15765;DHT22;7983;50.744;7.086;2022-09-03T07:01:40;20.70;63.10
15765;DHT22;7983;50.744;7.086;2022-09-03T07:04:10;20.70;63.00
15765;DHT22;7983;50.744;7.086;2022-09-03T07:06:39;20.70;62.70
15765;DHT22;7983;50.744;7.086;2022-09-03T07:09:09;20.80;62.60
15765;DHT22;7983;50.744;7.086;2022-09-03T07:11:36;20.70;62.30
15765;DHT22;7983;50.744;7.086;2022-09-03T07:14:05;20.80;62.40
15765;DHT22;7983;50.744;7.086;2022-09-03T07:16:33;20.80;62.40
15765;DHT22;7983;50.744;7.086;2022-09-03T07:19:00;20.80;62.40
15765;DHT22;7983;50.744;7.086;2022-09-03T07:21:31;20.80;62.30
15765;DHT22;7983;50.744;7.086;2022-09-03T07:24:01;20.80;62.20
15765;DHT22;7983;50.744;7.086;2022-09-03T07:26:29;20.80;62.20
15765;DHT22;7983;50.744;7.086;2022-09-03T07:28:57;20.80;62.20
15765;DHT22;7983;50.744;7.086;2022-09-03T07:33:53;20.80;62.10
15765;DHT22;7983;50.744;7.086;2022-09-03T07:36:20;20.70;62.10
15765;DHT22;7983;50.744;7.086;2022-09-03T07:38:49;20.70;62.30
15765;DHT22;7983;50.744;7.086;2022-09-03T07:41:15;20.60;62.50
15765;DHT22;7983;50.744;7.086;2022-09-03T07:43:43;20.50;62.80
15765;DHT22;7983;50.744;7.086;2022-09-03T07:46:19;20.40;63.20
15765;DHT22;7983;50.744;7.086;2022-09-03T07:51:18;20.20;64.60
15765;DHT22;7983;50.744;7.086;2022-09-03T07:53:45;20.10;65.60
15765;DHT22;7983;50.744;7.086;2022-09-03T07:56:12;20.10;65.60
15765;DHT22;7983;50.744;7.086;2022-09-03T07:58:42;20.00;67.10
15765;DHT22;7983;50.744;7.086;2022-09-03T08:01:13;19.90;67.90
15765;DHT22;7983;50.744;7.086;2022-09-03T08:03:42;19.80;68.80
15765;DHT22;7983;50.744;7.086;2022-09-03T08:06:17;19.70;69.40
15765;DHT22;7983;50.744;7.086;2022-09-03T08:08:43;19.60;69.60
15765;DHT22;7983;50.744;7.086;2022-09-03T08:11:17;19.50;69.40
15765;DHT22;7983;50.744;7.086;2022-09-03T08:13:48;19.40;71.40
15765;DHT22;7983;50.744;7.086;2022-09-03T08:16:18;19.40;72.40
15765;DHT22;7983;50.744;7.086;2022-09-03T08:18:44;19.30;71.40
15765;DHT22;7983;50.744;7.086;2022-09-03T08:21:18;19.20;71.70
15765;DHT22;7983;50.744;7.086;2022-09-03T08:23:49;19.20;74.20
15765;DHT22;7983;50.744;7.086;2022-09-03T08:26:18;19.20;75.80
15765;DHT22;7983;50.744;7.086;2022-09-03T08:28:45;19.10;75.50
15765;DHT22;7983;50.744;7.086;2022-09-03T08:33:37;19.00;75.80
15765;DHT22;7983;50.744;7.086;2022-09-03T08:36:11;19.00;76.70
15765;DHT22;7983;50.744;7.086;2022-09-03T08:38:43;18.90;78.60
15765;DHT22;7983;50.744;7.086;2022-09-03T08:41:13;18.90;77.30
15765;DHT22;7983;50.744;7.086;2022-09-03T08:44:05;18.90;77.90
15765;DHT22;7983;50.744;7.086;2022-09-03T08:46:59;19.00;82.00
15765;DHT22;7983;50.744;7.086;2022-09-03T08:49:47;19.10;83.60
15765;DHT22;7983;50.744;7.086;2022-09-03T09:01:04;19.40;85.70
15765;DHT22;7983;50.744;7.086;2022-09-03T09:03:41;19.50;88.10
15765;DHT22;7983;50.744;7.086;2022-09-03T09:09:32;19.70;88.00
15765;DHT22;7983;50.744;7.086;2022-09-03T09:23:28;20.40;86.80
15765;DHT22;7983;50.744;7.086;2022-09-03T09:26:05;20.60;88.60
15765;DHT22;7983;50.744;7.086;2022-09-03T09:28:35;20.70;88.50
15765;DHT22;7983;50.744;7.086;2022-09-03T09:31:04;20.80;88.60
15765;DHT22;7983;50.744;7.086;2022-09-03T09:33:33;20.90;87.80
15765;DHT22;7983;50.744;7.086;2022-09-03T09:36:05;21.00;87.80
15765;DHT22;7983;50.744;7.086;2022-09-03T09:38:36;21.20;88.30
15765;DHT22;7983;50.744;7.086;2022-09-03T09:41:18;21.30;88.30
15765;DHT22;7983;50.744;7.086;2022-09-03T09:43:47;21.50;89.30
15765;DHT22;7983;50.744;7.086;2022-09-03T09:46:21;21.60;88.90
15765;DHT22;7983;50.744;7.086;2022-09-03T09:48:50;21.80;88.30
15765;DHT22;7983;50.744;7.086;2022-09-03T09:51:23;22.00;87.70
15765;DHT22;7983;50.744;7.086;2022-09-03T09:54:13;22.20;87.50
15765;DHT22;7983;50.744;7.086;2022-09-03T09:56:43;22.40;87.80
15765;DHT22;7983;50.744;7.086;2022-09-03T09:59:10;22.60;86.30
15765;DHT22;7983;50.744;7.086;2022-09-03T10:01:39;23.00;85.70
15765;DHT22;7983;50.744;7.086;2022-09-03T10:04:09;23.50;84.60
15765;DHT22;7983;50.744;7.086;2022-09-03T10:06:38;24.00;83.30
15765;DHT22;7983;50.744;7.086;2022-09-03T10:09:30;24.50;80.80
15765;DHT22;7983;50.744;7.086;2022-09-03T10:12:34;24.90;78.80
15765;DHT22;7983;50.744;7.086;2022-09-03T10:15:07;25.00;77.40
15765;DHT22;7983;50.744;7.086;2022-09-03T10:23:17;24.60;75.80
15765;DHT22;7983;50.744;7.086;2022-09-03T10:28:15;24.20;76.60
15765;DHT22;7983;50.744;7.086;2022-09-03T10:36:17;23.70;77.00
15765;DHT22;7983;50.744;7.086;2022-09-03T10:38:50;23.60;77.20
15765;DHT22;7983;50.744;7.086;2022-09-03T10:41:39;23.50;78.00
15765;DHT22;7983;50.744;7.086;2022-09-03T10:50:09;23.30;78.00
15765;DHT22;7983;50.744;7.086;2022-09-03T10:52:51;23.30;77.90
15765;DHT22;7983;50.744;7.086;2022-09-03T11:00:53;23.20;78.50
15765;DHT22;7983;50.744;7.086;2022-09-03T11:11:23;23.40;79.70
15765;DHT22;7983;50.744;7.086;2022-09-03T11:14:03;23.50;79.90
15765;DHT22;7983;50.744;7.086;2022-09-03T11:16:46;23.80;81.30
15765;DHT22;7983;50.744;7.086;2022-09-03T11:19:17;24.10;80.80
15765;DHT22;7983;50.744;7.086;2022-09-03T11:21:44;24.40;80.70
15765;DHT22;7983;50.744;7.086;2022-09-03T11:26:43;24.70;80.30
15765;DHT22;7983;50.744;7.086;2022-09-03T11:29:25;25.00;80.30
15765;DHT22;7983;50.744;7.086;2022-09-03T11:34:53;25.30;77.90
15765;DHT22;7983;50.744;7.086;2022-09-03T11:37:25;25.40;78.00
15765;DHT22;7983;50.744;7.086;2022-09-03T11:40:13;25.40;78.00
15765;DHT22;7983;50.744;7.086;2022-09-03T11:42:45;25.40;76.40
15765;DHT22;7983;50.744;7.086;2022-09-03T11:45:35;25.40;77.10
15765;DHT22;7983;50.744;7.086;2022-09-03T11:48:01;25.30;76.40
15765;DHT22;7983;50.744;7.086;2022-09-03T11:50:29;25.30;76.90
15765;DHT22;7983;50.744;7.086;2022-09-03T11:56:08;25.20;76.80
15765;DHT22;7983;50.744;7.086;2022-09-03T11:58:39;25.20;77.50
15765;DHT22;7983;50.744;7.086;2022-09-03T12:01:12;25.20;77.50
15765;DHT22;7983;50.744;7.086;2022-09-03T12:03:58;25.20;77.40
15765;DHT22;7983;50.744;7.086;2022-09-03T12:09:40;25.50;78.60
15765;DHT22;7983;50.744;7.086;2022-09-03T12:19:57;26.90;78.80
15765;DHT22;7983;50.744;7.086;2022-09-03T12:22:26;27.20;79.10
15765;DHT22;7983;50.744;7.086;2022-09-03T12:24:53;27.50;78.60
15765;DHT22;7983;50.744;7.086;2022-09-03T12:27:20;27.70;78.20
15765;DHT22;7983;50.744;7.086;2022-09-03T12:29:57;28.00;77.00
15765;DHT22;7983;50.744;7.086;2022-09-03T12:32:29;28.20;75.20
15765;DHT22;7983;50.744;7.086;2022-09-03T12:35:13;28.30;75.40
15765;DHT22;7983;50.744;7.086;2022-09-03T12:37:41;28.50;74.80
15765;DHT22;7983;50.744;7.086;2022-09-03T12:40:20;28.70;76.00
15765;DHT22;7983;50.744;7.086;2022-09-03T12:42:49;29.00;74.50
15765;DHT22;7983;50.744;7.086;2022-09-03T12:45:24;29.20;75.30
15765;DHT22;7983;50.744;7.086;2022-09-03T12:47:53;29.40;74.20
15765;DHT22;7983;50.744;7.086;2022-09-03T12:50:21;29.50;73.30
15765;DHT22;7983;50.744;7.086;2022-09-03T12:52:58;29.60;73.20
15765;DHT22;7983;50.744;7.086;2022-09-03T13:01:11;30.10;70.50
15765;DHT22;7983;50.744;7.086;2022-09-03T13:03:51;30.20;70.30
15765;DHT22;7983;50.744;7.086;2022-09-03T13:06:25;30.30;70.50
15765;DHT22;7983;50.744;7.086;2022-09-03T13:09:00;30.30;68.70
15765;DHT22;7983;50.744;7.086;2022-09-03T13:11:27;30.30;67.80
15765;DHT22;7983;50.744;7.086;2022-09-03T13:14:06;30.20;69.40
15765;DHT22;7983;50.744;7.086;2022-09-03T13:19:44;30.40;68.30
15765;DHT22;7983;50.744;7.086;2022-09-03T13:25:19;30.70;68.60
15765;DHT22;7983;50.744;7.086;2022-09-03T13:33:25;31.00;67.00
15765;DHT22;7983;50.744;7.086;2022-09-03T13:35:59;31.10;66.00
15765;DHT22;7983;50.744;7.086;2022-09-03T13:38:34;31.10;66.30
15765;DHT22;7983;50.744;7.086;2022-09-03T13:43:46;31.10;65.50
15765;DHT22;7983;50.744;7.086;2022-09-03T13:46:24;31.20;65.20
15765;DHT22;7983;50.744;7.086;2022-09-03T13:49:01;31.30;63.60
15765;DHT22;7983;50.744;7.086;2022-09-03T13:51:56;31.30;63.50
15765;DHT22;7983;50.744;7.086;2022-09-03T13:54:41;31.30;63.20
15765;DHT22;7983;50.744;7.086;2022-09-03T13:57:33;31.30;63.50
15765;DHT22;7983;50.744;7.086;2022-09-03T14:00:09;31.40;63.40
15765;DHT22;7983;50.744;7.086;2022-09-03T14:15:48;31.80;62.20
15765;DHT22;7983;50.744;7.086;2022-09-03T14:18:40;31.90;62.10
15765;DHT22;7983;50.744;7.086;2022-09-03T14:21:19;31.90;60.60
15765;DHT22;7983;50.744;7.086;2022-09-03T14:26:35;31.90;61.00
15765;DHT22;7983;50.744;7.086;2022-09-03T14:51:57;30.80;59.00
15765;DHT22;7983;50.744;7.086;2022-09-03T14:57:48;30.30;59.00
15765;DHT22;7983;50.744;7.086;2022-09-03T15:06:00;29.60;60.00
15765;DHT22;7983;50.744;7.086;2022-09-03T15:09:44;29.50;61.00
15765;DHT22;7983;50.744;7.086;2022-09-03T15:12:00;29.60;61.40
15765;DHT22;7983;50.744;7.086;2022-09-03T15:20:16;30.00;61.40
15765;DHT22;7983;50.744;7.086;2022-09-03T15:25:21;30.00;61.30
15765;DHT22;7983;50.744;7.086;2022-09-03T15:28:03;30.00;61.30
15765;DHT22;7983;50.744;7.086;2022-09-03T15:31:17;30.00;61.40
15765;DHT22;7983;50.744;7.086;2022-09-03T15:33:51;30.00;61.00
15765;DHT22;7983;50.744;7.086;2022-09-03T15:36:23;30.00;61.10
15765;DHT22;7983;50.744;7.086;2022-09-03T15:39:16;29.90;61.00
15765;DHT22;7983;50.744;7.086;2022-09-03T15:41:56;29.70;63.00
15765;DHT22;7983;50.744;7.086;2022-09-03T15:44:27;29.40;64.30
15765;DHT22;7983;50.744;7.086;2022-09-03T15:47:05;28.90;65.10
15765;DHT22;7983;50.744;7.086;2022-09-03T15:49:46;28.40;66.30
15765;DHT22;7983;50.744;7.086;2022-09-03T15:55:11;27.40;69.60
15765;DHT22;7983;50.744;7.086;2022-09-03T15:58:02;27.10;70.90
15765;DHT22;7983;50.744;7.086;2022-09-03T16:01:50;26.60;71.20
15765;DHT22;7983;50.744;7.086;2022-09-03T16:12:09;25.80;72.80
15765;DHT22;7983;50.744;7.086;2022-09-03T16:14:45;25.70;72.30
15765;DHT22;7983;50.744;7.086;2022-09-03T16:17:43;25.60;73.90
15765;DHT22;7983;50.744;7.086;2022-09-03T16:20:21;25.50;77.20
15765;DHT22;7983;50.744;7.086;2022-09-03T16:23:15;25.40;76.20
15765;DHT22;7983;50.744;7.086;2022-09-03T16:26:12;25.20;77.10
15765;DHT22;7983;50.744;7.086;2022-09-03T16:28:59;25.10;76.90
15765;DHT22;7983;50.744;7.086;2022-09-03T16:34:26;24.80;81.20
15765;DHT22;7983;50.744;7.086;2022-09-03T16:54:13;24.20;84.10
15765;DHT22;7983;50.744;7.086;2022-09-03T17:17:42;23.60;90.70
15765;DHT22;7983;50.744;7.086;2022-09-03T17:20:12;23.50;90.20
15765;DHT22;7983;50.744;7.086;2022-09-03T17:25:38;23.20;91.10
15765;DHT22;7983;50.744;7.086;2022-09-03T17:28:07;23.00;91.00
15765;DHT22;7983;50.744;7.086;2022-09-03T17:36:23;22.70;92.50
15765;DHT22;7983;50.744;7.086;2022-09-03T17:42:00;22.60;93.80
15765;DHT22;7983;50.744;7.086;2022-09-03T17:44:49;22.50;93.90
15765;DHT22;7983;50.744;7.086;2022-09-03T17:50:25;22.30;93.90
15765;DHT22;7983;50.744;7.086;2022-09-03T17:53:15;22.20;94.60
15765;DHT22;7983;50.744;7.086;2022-09-03T17:56:05;22.10;95.80
15765;DHT22;7983;50.744;7.086;2022-09-03T17:58:50;22.10;97.10
15765;DHT22;7983;50.744;7.086;2022-09-03T18:01:26;22.00;96.20
15765;DHT22;7983;50.744;7.086;2022-09-03T18:04:25;22.00;96.40
15765;DHT22;7983;50.744;7.086;2022-09-03T18:07:14;21.90;98.10
15765;DHT22;7983;50.744;7.086;2022-09-03T18:09:54;21.80;99.90
15765;DHT22;7983;50.744;7.086;2022-09-03T18:12:39;21.80;98.70
15765;DHT22;7983;50.744;7.086;2022-09-03T18:17:44;21.70;98.00
15765;DHT22;7983;50.744;7.086;2022-09-03T18:20:14;21.70;99.90
15765;DHT22;7983;50.744;7.086;2022-09-03T18:23:27;21.60;99.90
15765;DHT22;7983;50.744;7.086;2022-09-03T18:26:21;21.60;99.90
15765;DHT22;7983;50.744;7.086;2022-09-03T18:32:11;21.50;99.90
15765;DHT22;7983;50.744;7.086;2022-09-03T18:34:56;21.50;99.90
15765;DHT22;7983;50.744;7.086;2022-09-03T18:37:40;21.50;99.90
15765;DHT22;7983;50.744;7.086;2022-09-03T18:40:41;21.40;99.90
15765;DHT22;7983;50.744;7.086;2022-09-03T18:43:36;21.40;99.90
15765;DHT22;7983;50.744;7.086;2022-09-03T18:56:53;21.30;99.90
15765;DHT22;7983;50.744;7.086;2022-09-03T18:59:56;21.20;99.90
15765;DHT22;7983;50.744;7.086;2022-09-03T19:12:27;21.10;99.90
15765;DHT22;7983;50.744;7.086;2022-09-03T19:15:23;21.10;99.90
15765;DHT22;7983;50.744;7.086;2022-09-03T19:24:02;21.00;99.90
15765;DHT22;7983;50.744;7.086;2022-09-03T19:36:08;21.00;99.90
15765;DHT22;7983;50.744;7.086;2022-09-03T19:49:21;20.90;99.90
15765;DHT22;7983;50.744;7.086;2022-09-03T19:55:23;20.80;99.90
15765;DHT22;7983;50.744;7.086;2022-09-03T19:58:12;20.80;99.90
15765;DHT22;7983;50.744;7.086;2022-09-03T20:01:00;20.80;99.90
15765;DHT22;7983;50.744;7.086;2022-09-03T20:03:44;20.70;99.90
15765;DHT22;7983;50.744;7.086;2022-09-03T20:06:31;20.70;99.90
15765;DHT22;7983;50.744;7.086;2022-09-03T20:09:21;20.70;99.90
15765;DHT22;7983;50.744;7.086;2022-09-03T20:12:07;20.70;99.90
15765;DHT22;7983;50.744;7.086;2022-09-03T20:14:36;20.70;99.90
15765;DHT22;7983;50.744;7.086;2022-09-03T20:20:32;20.60;99.90
15765;DHT22;7983;50.744;7.086;2022-09-03T20:23:02;20.60;99.90
15765;DHT22;7983;50.744;7.086;2022-09-03T20:31:14;20.50;99.90
15765;DHT22;7983;50.744;7.086;2022-09-03T20:44:53;20.40;99.90
15765;DHT22;7983;50.744;7.086;2022-09-03T20:53:41;20.30;99.90
15765;DHT22;7983;50.744;7.086;2022-09-03T20:59:56;20.20;99.90
15765;DHT22;7983;50.744;7.086;2022-09-03T21:02:42;20.20;99.90
15765;DHT22;7983;50.744;7.086;2022-09-03T21:05:39;20.20;99.90
15765;DHT22;7983;50.744;7.086;2022-09-03T21:08:34;20.10;99.90
15765;DHT22;7983;50.744;7.086;2022-09-03T21:16:55;20.10;99.90
15765;DHT22;7983;50.744;7.086;2022-09-03T21:25:38;20.00;99.90
15765;DHT22;7983;50.744;7.086;2022-09-03T21:28:16;20.00;99.90
15765;DHT22;7983;50.744;7.086;2022-09-03T21:30:50;20.00;99.90
15765;DHT22;7983;50.744;7.086;2022-09-03T21:33:47;20.00;99.90
15765;DHT22;7983;50.744;7.086;2022-09-03T21:36:19;20.00;99.90
15765;DHT22;7983;50.744;7.086;2022-09-03T21:38:46;20.00;99.90
15765;DHT22;7983;50.744;7.086;2022-09-03T21:41:25;20.00;99.90
15765;DHT22;7983;50.744;7.086;2022-09-03T21:44:04;20.00;99.90
15765;DHT22;7983;50.744;7.086;2022-09-03T21:47:00;20.00;99.90
15765;DHT22;7983;50.744;7.086;2022-09-03T21:52:50;20.00;99.90
15765;DHT22;7983;50.744;7.086;2022-09-03T21:55:18;19.90;99.90
15765;DHT22;7983;50.744;7.086;2022-09-03T21:57:55;19.90;99.90
15765;DHT22;7983;50.744;7.086;2022-09-03T22:00:31;19.90;99.90
15765;DHT22;7983;50.744;7.086;2022-09-03T22:02:58;19.90;99.90
15765;DHT22;7983;50.744;7.086;2022-09-03T22:05:49;19.90;99.90
15765;DHT22;7983;50.744;7.086;2022-09-03T22:18:43;19.80;99.90
15765;DHT22;7983;50.744;7.086;2022-09-03T22:22:13;19.80;99.90
15765;DHT22;7983;50.744;7.086;2022-09-03T22:24:28;19.80;99.90
15765;DHT22;7983;50.744;7.086;2022-09-03T22:27:16;19.80;99.90
15765;DHT22;7983;50.744;7.086;2022-09-03T22:30:10;19.80;99.90
15765;DHT22;7983;50.744;7.086;2022-09-03T22:44:22;19.70;99.90
15765;DHT22;7983;50.744;7.086;2022-09-03T22:49:41;19.70;99.90
15765;DHT22;7983;50.744;7.086;2022-09-03T22:52:24;19.70;99.90
15765;DHT22;7983;50.744;7.086;2022-09-03T22:57:37;19.70;99.90
15765;DHT22;7983;50.744;7.086;2022-09-03T23:00:09;19.70;99.90
15765;DHT22;7983;50.744;7.086;2022-09-03T23:02:36;19.70;99.90
15765;DHT22;7983;50.744;7.086;2022-09-03T23:08:21;19.60;99.90
15765;DHT22;7983;50.744;7.086;2022-09-03T23:13:50;19.70;99.90
15765;DHT22;7983;50.744;7.086;2022-09-03T23:19:05;19.70;99.90
15765;DHT22;7983;50.744;7.086;2022-09-03T23:21:45;19.70;99.90
15765;DHT22;7983;50.744;7.086;2022-09-03T23:24:20;19.60;99.90
15765;DHT22;7983;50.744;7.086;2022-09-03T23:26:51;19.60;99.90
15765;DHT22;7983;50.744;7.086;2022-09-03T23:31:53;19.60;99.90
15765;DHT22;7983;50.744;7.086;2022-09-03T23:34:22;19.50;99.90
15765;DHT22;7983;50.744;7.086;2022-09-03T23:42:44;19.50;99.90
15765;DHT22;7983;50.744;7.086;2022-09-03T23:47:58;19.40;99.90
